KBGM/BGM METAR and TAF weather

Enter ICAO airport designator
Station Type Date Time Source
KBGM METAR 2018/07/20 13:53 UTC NOAA

KBGM 201353Z VRB03KT 10SM CLR 21/14 A3017 RMK AO2 SLP209 T02110139


Station Type Date Time Source
KBGM Decoded METAR 2018/07/20 13:53 UTC NOAA

BINGHAMTON REGIONAL AIRPORT, NY, United States (KBGM) 42-12N 75-59W 492M
Jul 20, 2018 - 09:53 AM EDT / 2018.07.20 1353 UTC
Wind: Variable at 3 MPH (3 KT):0
Visibility: 10 mile(s):0
Sky conditions: clear
Temperature: 70.0 F (21.1 C)
Dew Point: 57.0 F (13.9 C)
Relative Humidity: 63%
Pressure (altimeter): 30.17 in. Hg (1021 hPa)
ob: KBGM 201353Z VRB03KT 10SM CLR 21/14 A3017 RMK AO2 SLP209 T02110139
cycle: 14

Station Type Date Time Source
KBGM TAF 2018/07/20 12:24 UTC NOAA

TAF KBGM 201122Z 2012/2112 15005KT P6SM SKC
FM201500 17009KT P6SM FEW250
FM202100 16008KT P6SM FEW060 SCT250
FM210900 13008KT P6SM SCT020 BKN200


Example: see airport list